sensor_id;sensor_type;location;lat;lon;timestamp;P1;durP1;ratioP1;P2;durP2;ratioP2
1747;SDS011;871;47.034;15.394;2023-04-24T04:02:31;29.97;;;7.93;;
1747;SDS011;871;47.034;15.394;2023-04-24T04:04:57;29.90;;;8.17;;
1747;SDS011;871;47.034;15.394;2023-04-24T04:07:23;30.47;;;8.90;;
1747;SDS011;871;47.034;15.394;2023-04-24T04:09:49;30.47;;;9.50;;
1747;SDS011;871;47.034;15.394;2023-04-24T04:12:15;31.07;;;9.80;;
1747;SDS011;871;47.034;15.394;2023-04-24T04:14:41;33.60;;;9.37;;
1747;SDS011;871;47.034;15.394;2023-04-24T04:17:07;34.57;;;10.57;;
1747;SDS011;871;47.034;15.394;2023-04-24T04:19:33;32.27;;;9.83;;
1747;SDS011;871;47.034;15.394;2023-04-24T04:21:59;31.60;;;10.00;;
1747;SDS011;871;47.034;15.394;2023-04-24T04:24:25;32.87;;;10.67;;
1747;SDS011;871;47.034;15.394;2023-04-24T04:26:51;33.10;;;11.90;;
1747;SDS011;871;47.034;15.394;2023-04-24T04:29:21;36.47;;;11.80;;
1747;SDS011;871;47.034;15.394;2023-04-24T04:31:47;35.40;;;11.90;;
1747;SDS011;871;47.034;15.394;2023-04-24T04:34:13;38.40;;;11.87;;
1747;SDS011;871;47.034;15.394;2023-04-24T04:36:40;38.53;;;12.63;;
1747;SDS011;871;47.034;15.394;2023-04-24T04:39:06;37.67;;;12.13;;
1747;SDS011;871;47.034;15.394;2023-04-24T04:41:32;39.03;;;12.53;;
1747;SDS011;871;47.034;15.394;2023-04-24T04:44:00;40.20;;;12.70;;
1747;SDS011;871;47.034;15.394;2023-04-24T04:46:26;40.20;;;12.10;;
1747;SDS011;871;47.034;15.394;2023-04-24T04:48:53;41.87;;;12.03;;
1747;SDS011;871;47.034;15.394;2023-04-24T04:51:19;46.03;;;12.57;;
1747;SDS011;871;47.034;15.394;2023-04-24T04:53:45;46.37;;;13.90;;
1747;SDS011;871;47.034;15.394;2023-04-24T04:56:11;43.10;;;11.53;;
1747;SDS011;871;47.034;15.394;2023-04-24T04:58:38;42.93;;;11.67;;
1747;SDS011;871;47.034;15.394;2023-04-24T05:01:04;42.87;;;13.83;;
1747;SDS011;871;47.034;15.394;2023-04-24T05:03:31;45.27;;;13.70;;
1747;SDS011;871;47.034;15.394;2023-04-24T05:05:57;45.30;;;13.80;;
1747;SDS011;871;47.034;15.394;2023-04-24T05:08:24;49.03;;;14.47;;
1747;SDS011;871;47.034;15.394;2023-04-24T05:10:50;45.27;;;12.53;;
1747;SDS011;871;47.034;15.394;2023-04-24T05:13:16;50.53;;;13.30;;
1747;SDS011;871;47.034;15.394;2023-04-24T05:15:42;46.20;;;11.90;;
1747;SDS011;871;47.034;15.394;2023-04-24T05:18:08;47.87;;;14.03;;
1747;SDS011;871;47.034;15.394;2023-04-24T05:20:35;50.50;;;13.27;;
1747;SDS011;871;47.034;15.394;2023-04-24T05:23:01;50.27;;;13.00;;
1747;SDS011;871;47.034;15.394;2023-04-24T05:25:27;48.33;;;12.90;;
1747;SDS011;871;47.034;15.394;2023-04-24T05:27:54;44.90;;;12.93;;
1747;SDS011;871;47.034;15.394;2023-04-24T05:30:20;43.07;;;11.40;;
1747;SDS011;871;47.034;15.394;2023-04-24T05:32:46;47.90;;;11.80;;
1747;SDS011;871;47.034;15.394;2023-04-24T05:35:12;47.03;;;12.53;;
1747;SDS011;871;47.034;15.394;2023-04-24T05:37:38;45.33;;;12.80;;
1747;SDS011;871;47.034;15.394;2023-04-24T05:40:04;45.80;;;12.30;;
1747;SDS011;871;47.034;15.394;2023-04-24T05:42:31;51.50;;;12.10;;
1747;SDS011;871;47.034;15.394;2023-04-24T05:44:57;60.47;;;13.00;;
1747;SDS011;871;47.034;15.394;2023-04-24T05:47:23;49.00;;;13.90;;
1747;SDS011;871;47.034;15.394;2023-04-24T05:49:49;50.50;;;13.60;;
1747;SDS011;871;47.034;15.394;2023-04-24T05:52:15;46.20;;;12.30;;
1747;SDS011;871;47.034;15.394;2023-04-24T05:54:41;46.83;;;11.93;;
1747;SDS011;871;47.034;15.394;2023-04-24T05:57:07;50.23;;;12.80;;
1747;SDS011;871;47.034;15.394;2023-04-24T05:59:34;46.17;;;12.13;;
1747;SDS011;871;47.034;15.394;2023-04-24T06:02:00;52.83;;;12.33;;
1747;SDS011;871;47.034;15.394;2023-04-24T06:04:26;48.57;;;12.03;;
1747;SDS011;871;47.034;15.394;2023-04-24T06:06:52;49.03;;;13.20;;
1747;SDS011;871;47.034;15.394;2023-04-24T06:09:21;45.27;;;11.80;;
1747;SDS011;871;47.034;15.394;2023-04-24T06:11:47;45.50;;;11.27;;
1747;SDS011;871;47.034;15.394;2023-04-24T06:14:13;52.83;;;12.30;;
1747;SDS011;871;47.034;15.394;2023-04-24T06:16:42;50.63;;;12.43;;
1747;SDS011;871;47.034;15.394;2023-04-24T06:19:08;44.30;;;9.80;;
1747;SDS011;871;47.034;15.394;2023-04-24T06:21:34;47.80;;;11.10;;
1747;SDS011;871;47.034;15.394;2023-04-24T06:24:01;46.17;;;11.00;;
1747;SDS011;871;47.034;15.394;2023-04-24T06:26:27;46.67;;;11.57;;
1747;SDS011;871;47.034;15.394;2023-04-24T06:28:53;49.00;;;11.53;;
1747;SDS011;871;47.034;15.394;2023-04-24T06:31:20;49.23;;;12.43;;
1747;SDS011;871;47.034;15.394;2023-04-24T06:33:46;51.47;;;12.07;;
1747;SDS011;871;47.034;15.394;2023-04-24T06:36:12;45.27;;;9.83;;
1747;SDS011;871;47.034;15.394;2023-04-24T06:38:38;48.73;;;10.13;;
1747;SDS011;871;47.034;15.394;2023-04-24T06:41:04;49.27;;;10.77;;
1747;SDS011;871;47.034;15.394;2023-04-24T06:43:30;50.50;;;12.07;;
1747;SDS011;871;47.034;15.394;2023-04-24T06:45:57;50.23;;;11.37;;
1747;SDS011;871;47.034;15.394;2023-04-24T06:48:23;49.00;;;12.40;;
1747;SDS011;871;47.034;15.394;2023-04-24T06:50:50;47.83;;;10.60;;
1747;SDS011;871;47.034;15.394;2023-04-24T06:53:16;52.27;;;12.40;;
1747;SDS011;871;47.034;15.394;2023-04-24T06:55:42;54.10;;;11.53;;
1747;SDS011;871;47.034;15.394;2023-04-24T06:58:10;54.73;;;15.30;;
1747;SDS011;871;47.034;15.394;2023-04-24T07:00:36;50.03;;;12.50;;
1747;SDS011;871;47.034;15.394;2023-04-24T07:03:02;51.73;;;11.37;;
1747;SDS011;871;47.034;15.394;2023-04-24T07:05:30;47.23;;;11.20;;
1747;SDS011;871;47.034;15.394;2023-04-24T07:07:56;49.77;;;12.27;;
1747;SDS011;871;47.034;15.394;2023-04-24T07:10:25;49.07;;;12.23;;
1747;SDS011;871;47.034;15.394;2023-04-24T07:12:53;49.30;;;11.97;;
1747;SDS011;871;47.034;15.394;2023-04-24T07:15:19;50.47;;;12.33;;
1747;SDS011;871;47.034;15.394;2023-04-24T07:17:45;48.97;;;12.53;;
1747;SDS011;871;47.034;15.394;2023-04-24T07:20:11;51.00;;;13.07;;
1747;SDS011;871;47.034;15.394;2023-04-24T07:22:40;49.50;;;13.30;;
1747;SDS011;871;47.034;15.394;2023-04-24T07:25:07;49.93;;;14.13;;
1747;SDS011;871;47.034;15.394;2023-04-24T07:27:33;52.63;;;13.93;;
1747;SDS011;871;47.034;15.394;2023-04-24T07:30:00;48.10;;;12.90;;
1747;SDS011;871;47.034;15.394;2023-04-24T07:32:26;48.40;;;13.97;;
1747;SDS011;871;47.034;15.394;2023-04-24T07:34:52;48.13;;;13.30;;
1747;SDS011;871;47.034;15.394;2023-04-24T07:37:18;52.40;;;15.43;;
1747;SDS011;871;47.034;15.394;2023-04-24T07:39:45;52.87;;;14.73;;
1747;SDS011;871;47.034;15.394;2023-04-24T07:42:11;50.70;;;13.60;;
1747;SDS011;871;47.034;15.394;2023-04-24T07:44:37;54.10;;;16.40;;
1747;SDS011;871;47.034;15.394;2023-04-24T07:47:03;51.43;;;16.83;;
1747;SDS011;871;47.034;15.394;2023-04-24T07:49:30;51.27;;;16.93;;
1747;SDS011;871;47.034;15.394;2023-04-24T07:51:56;48.43;;;14.87;;
1747;SDS011;871;47.034;15.394;2023-04-24T07:54:22;51.53;;;17.00;;
1747;SDS011;871;47.034;15.394;2023-04-24T07:56:48;47.23;;;15.80;;
1747;SDS011;871;47.034;15.394;2023-04-24T07:59:14;49.00;;;16.50;;
1747;SDS011;871;47.034;15.394;2023-04-24T08:01:40;49.37;;;14.83;;
1747;SDS011;871;47.034;15.394;2023-04-24T08:04:07;50.00;;;15.10;;
1747;SDS011;871;47.034;15.394;2023-04-24T08:06:33;50.07;;;14.90;;
1747;SDS011;871;47.034;15.394;2023-04-24T08:08:59;51.73;;;14.97;;
1747;SDS011;871;47.034;15.394;2023-04-24T08:11:26;49.00;;;12.83;;
1747;SDS011;871;47.034;15.394;2023-04-24T08:13:52;45.47;;;13.50;;
1747;SDS011;871;47.034;15.394;2023-04-24T08:16:19;48.17;;;12.43;;
1747;SDS011;871;47.034;15.394;2023-04-24T08:18:45;52.40;;;14.67;;
1747;SDS011;871;47.034;15.394;2023-04-24T08:21:11;46.27;;;13.53;;
1747;SDS011;871;47.034;15.394;2023-04-24T08:23:42;47.90;;;13.60;;
1747;SDS011;871;47.034;15.394;2023-04-24T08:26:08;49.13;;;13.30;;
1747;SDS011;871;47.034;15.394;2023-04-24T08:28:34;46.60;;;12.50;;
1747;SDS011;871;47.034;15.394;2023-04-24T08:31:01;44.57;;;10.40;;
1747;SDS011;871;47.034;15.394;2023-04-24T08:33:27;46.60;;;11.63;;
1747;SDS011;871;47.034;15.394;2023-04-24T08:35:59;54.00;;;11.20;;
1747;SDS011;871;47.034;15.394;2023-04-24T08:38:25;42.17;;;8.87;;
1747;SDS011;871;47.034;15.394;2023-04-24T08:40:51;43.50;;;7.47;;
1747;SDS011;871;47.034;15.394;2023-04-24T08:43:17;44.00;;;7.20;;
1747;SDS011;871;47.034;15.394;2023-04-24T08:45:44;41.87;;;6.93;;
1747;SDS011;871;47.034;15.394;2023-04-24T08:48:11;39.33;;;6.77;;
1747;SDS011;871;47.034;15.394;2023-04-24T08:50:38;39.00;;;6.20;;
1747;SDS011;871;47.034;15.394;2023-04-24T08:53:06;43.30;;;7.00;;
1747;SDS011;871;47.034;15.394;2023-04-24T08:55:33;41.17;;;6.27;;
1747;SDS011;871;47.034;15.394;2023-04-24T08:58:00;47.60;;;6.27;;
1747;SDS011;871;47.034;15.394;2023-04-24T09:00:27;41.40;;;6.03;;
1747;SDS011;871;47.034;15.394;2023-04-24T09:02:53;41.67;;;6.10;;
1747;SDS011;871;47.034;15.394;2023-04-24T09:05:20;41.33;;;5.90;;
1747;SDS011;871;47.034;15.394;2023-04-24T09:07:49;40.97;;;6.93;;
1747;SDS011;871;47.034;15.394;2023-04-24T09:10:15;41.40;;;6.67;;
1747;SDS011;871;47.034;15.394;2023-04-24T09:12:41;42.83;;;5.93;;
1747;SDS011;871;47.034;15.394;2023-04-24T09:15:08;39.40;;;6.60;;
1747;SDS011;871;47.034;15.394;2023-04-24T09:17:35;39.10;;;7.10;;
1747;SDS011;871;47.034;15.394;2023-04-24T09:20:01;39.33;;;6.80;;
1747;SDS011;871;47.034;15.394;2023-04-24T09:22:30;41.87;;;7.10;;
1747;SDS011;871;47.034;15.394;2023-04-24T09:25:04;42.07;;;7.10;;
1747;SDS011;871;47.034;15.394;2023-04-24T09:27:31;42.80;;;7.20;;
1747;SDS011;871;47.034;15.394;2023-04-24T09:29:57;40.40;;;6.80;;
1747;SDS011;871;47.034;15.394;2023-04-24T09:32:23;40.10;;;6.07;;
1747;SDS011;871;47.034;15.394;2023-04-24T09:35:04;39.57;;;4.93;;
1747;SDS011;871;47.034;15.394;2023-04-24T09:37:34;39.67;;;4.70;;
1747;SDS011;871;47.034;15.394;2023-04-24T09:40:10;38.37;;;3.03;;
1747;SDS011;871;47.034;15.394;2023-04-24T09:42:38;38.50;;;3.17;;
1747;SDS011;871;47.034;15.394;2023-04-24T09:45:08;37.93;;;2.83;;
1747;SDS011;871;47.034;15.394;2023-04-24T09:47:35;37.40;;;2.60;;
1747;SDS011;871;47.034;15.394;2023-04-24T09:50:08;38.20;;;2.50;;
1747;SDS011;871;47.034;15.394;2023-04-24T09:52:35;37.80;;;1.93;;
1747;SDS011;871;47.034;15.394;2023-04-24T09:55:01;38.03;;;2.00;;
1747;SDS011;871;47.034;15.394;2023-04-24T09:57:27;37.67;;;1.73;;
1747;SDS011;871;47.034;15.394;2023-04-24T09:59:53;38.10;;;1.60;;
1747;SDS011;871;47.034;15.394;2023-04-24T10:02:21;38.13;;;1.60;;
1747;SDS011;871;47.034;15.394;2023-04-24T10:04:56;38.43;;;1.80;;
1747;SDS011;871;47.034;15.394;2023-04-24T10:07:27;38.40;;;2.20;;
1747;SDS011;871;47.034;15.394;2023-04-24T10:09:54;37.80;;;1.50;;
1747;SDS011;871;47.034;15.394;2023-04-24T10:12:20;37.70;;;1.17;;
1747;SDS011;871;47.034;15.394;2023-04-24T10:14:47;37.50;;;1.40;;
1747;SDS011;871;47.034;15.394;2023-04-24T10:17:14;37.47;;;1.20;;
1747;SDS011;871;47.034;15.394;2023-04-24T10:19:40;37.37;;;1.67;;
1747;SDS011;871;47.034;15.394;2023-04-24T10:22:09;36.87;;;1.00;;
1747;SDS011;871;47.034;15.394;2023-04-24T10:24:36;37.70;;;1.40;;
1747;SDS011;871;47.034;15.394;2023-04-24T10:27:03;37.07;;;1.10;;
1747;SDS011;871;47.034;15.394;2023-04-24T10:29:30;37.70;;;1.40;;
1747;SDS011;871;47.034;15.394;2023-04-24T10:31:56;37.27;;;1.40;;
1747;SDS011;871;47.034;15.394;2023-04-24T10:34:22;37.63;;;1.40;;
1747;SDS011;871;47.034;15.394;2023-04-24T10:36:50;37.70;;;1.80;;
1747;SDS011;871;47.034;15.394;2023-04-24T10:39:18;37.33;;;1.57;;
1747;SDS011;871;47.034;15.394;2023-04-24T10:41:44;37.37;;;1.50;;
1747;SDS011;871;47.034;15.394;2023-04-24T10:44:14;37.70;;;1.73;;
1747;SDS011;871;47.034;15.394;2023-04-24T10:46:45;39.60;;;1.70;;
1747;SDS011;871;47.034;15.394;2023-04-24T10:49:12;38.10;;;2.07;;
1747;SDS011;871;47.034;15.394;2023-04-24T10:51:46;37.90;;;2.00;;
1747;SDS011;871;47.034;15.394;2023-04-24T10:54:28;37.50;;;1.63;;
1747;SDS011;871;47.034;15.394;2023-04-24T10:59:40;38.67;;;2.37;;
1747;SDS011;871;47.034;15.394;2023-04-24T11:02:07;38.40;;;2.20;;
1747;SDS011;871;47.034;15.394;2023-04-24T11:04:33;38.73;;;2.23;;
1747;SDS011;871;47.034;15.394;2023-04-24T11:07:02;38.30;;;2.00;;
1747;SDS011;871;47.034;15.394;2023-04-24T11:09:30;38.47;;;2.23;;
1747;SDS011;871;47.034;15.394;2023-04-24T11:12:06;38.87;;;2.30;;
1747;SDS011;871;47.034;15.394;2023-04-24T11:17:53;38.50;;;2.33;;
1747;SDS011;871;47.034;15.394;2023-04-24T11:20:17;38.50;;;2.00;;
1747;SDS011;871;47.034;15.394;2023-04-24T11:22:43;38.20;;;2.10;;
1747;SDS011;871;47.034;15.394;2023-04-24T11:25:09;38.40;;;1.90;;
1747;SDS011;871;47.034;15.394;2023-04-24T11:27:43;37.70;;;1.60;;
1747;SDS011;871;47.034;15.394;2023-04-24T11:30:12;38.57;;;2.00;;
1747;SDS011;871;47.034;15.394;2023-04-24T11:32:41;38.20;;;1.80;;
1747;SDS011;871;47.034;15.394;2023-04-24T11:35:14;38.03;;;2.00;;
1747;SDS011;871;47.034;15.394;2023-04-24T11:37:42;38.40;;;1.87;;
1747;SDS011;871;47.034;15.394;2023-04-24T11:40:09;38.13;;;1.80;;
1747;SDS011;871;47.034;15.394;2023-04-24T11:42:36;39.37;;;1.90;;
1747;SDS011;871;47.034;15.394;2023-04-24T11:45:07;37.90;;;1.50;;
1747;SDS011;871;47.034;15.394;2023-04-24T11:47:33;38.17;;;1.70;;
1747;SDS011;871;47.034;15.394;2023-04-24T11:49:59;37.87;;;1.37;;
1747;SDS011;871;47.034;15.394;2023-04-24T11:52:26;37.83;;;1.50;;
1747;SDS011;871;47.034;15.394;2023-04-24T11:54:52;38.57;;;1.90;;
1747;SDS011;871;47.034;15.394;2023-04-24T11:57:19;38.20;;;1.40;;
1747;SDS011;871;47.034;15.394;2023-04-24T11:59:45;38.17;;;1.67;;
1747;SDS011;871;47.034;15.394;2023-04-24T12:02:21;38.03;;;1.63;;
1747;SDS011;871;47.034;15.394;2023-04-24T12:04:47;37.77;;;1.50;;
1747;SDS011;871;47.034;15.394;2023-04-24T12:07:14;37.93;;;1.37;;
1747;SDS011;871;47.034;15.394;2023-04-24T12:09:45;37.90;;;1.40;;
1747;SDS011;871;47.034;15.394;2023-04-24T12:12:12;37.80;;;1.30;;
1747;SDS011;871;47.034;15.394;2023-04-24T12:14:46;38.60;;;1.43;;
1747;SDS011;871;47.034;15.394;2023-04-24T12:17:13;39.10;;;1.57;;
1747;SDS011;871;47.034;15.394;2023-04-24T12:19:44;38.87;;;1.50;;
1747;SDS011;871;47.034;15.394;2023-04-24T12:22:10;37.80;;;1.37;;
1747;SDS011;871;47.034;15.394;2023-04-24T12:24:54;38.97;;;1.73;;
1747;SDS011;871;47.034;15.394;2023-04-24T12:27:21;39.60;;;1.60;;
1747;SDS011;871;47.034;15.394;2023-04-24T12:29:58;38.47;;;1.47;;
1747;SDS011;871;47.034;15.394;2023-04-24T12:32:24;39.37;;;1.87;;
1747;SDS011;871;47.034;15.394;2023-04-24T12:34:51;38.10;;;1.60;;
1747;SDS011;871;47.034;15.394;2023-04-24T12:37:17;38.27;;;1.50;;
1747;SDS011;871;47.034;15.394;2023-04-24T12:42:29;38.10;;;1.37;;
1747;SDS011;871;47.034;15.394;2023-04-24T12:44:56;38.47;;;1.80;;
1747;SDS011;871;47.034;15.394;2023-04-24T12:47:23;38.33;;;1.50;;
1747;SDS011;871;47.034;15.394;2023-04-24T12:49:50;38.80;;;1.80;;
1747;SDS011;871;47.034;15.394;2023-04-24T12:52:17;38.70;;;1.77;;
1747;SDS011;871;47.034;15.394;2023-04-24T12:54:45;37.70;;;1.63;;
1747;SDS011;871;47.034;15.394;2023-04-24T12:57:11;38.30;;;1.80;;
1747;SDS011;871;47.034;15.394;2023-04-24T12:59:37;39.20;;;1.83;;
1747;SDS011;871;47.034;15.394;2023-04-24T13:02:04;38.17;;;1.63;;
1747;SDS011;871;47.034;15.394;2023-04-24T13:04:30;40.40;;;1.37;;
1747;SDS011;871;47.034;15.394;2023-04-24T13:06:57;39.17;;;2.07;;
1747;SDS011;871;47.034;15.394;2023-04-24T13:09:23;38.43;;;1.73;;
1747;SDS011;871;47.034;15.394;2023-04-24T13:11:49;39.80;;;2.47;;
1747;SDS011;871;47.034;15.394;2023-04-24T13:14:15;38.00;;;1.97;;
1747;SDS011;871;47.034;15.394;2023-04-24T13:16:41;38.10;;;1.50;;
1747;SDS011;871;47.034;15.394;2023-04-24T13:19:07;37.90;;;1.57;;
1747;SDS011;871;47.034;15.394;2023-04-24T13:21:33;38.17;;;1.40;;
1747;SDS011;871;47.034;15.394;2023-04-24T13:23:59;38.50;;;1.60;;
1747;SDS011;871;47.034;15.394;2023-04-24T13:26:26;37.90;;;1.43;;
1747;SDS011;871;47.034;15.394;2023-04-24T13:28:53;38.53;;;1.50;;
1747;SDS011;871;47.034;15.394;2023-04-24T13:31:19;39.40;;;1.60;;
1747;SDS011;871;47.034;15.394;2023-04-24T13:33:45;38.57;;;1.93;;
1747;SDS011;871;47.034;15.394;2023-04-24T13:36:11;38.60;;;1.80;;
1747;SDS011;871;47.034;15.394;2023-04-24T13:38:37;37.70;;;1.70;;
1747;SDS011;871;47.034;15.394;2023-04-24T13:41:03;37.87;;;1.50;;
1747;SDS011;871;47.034;15.394;2023-04-24T13:43:29;40.80;;;1.60;;
1747;SDS011;871;47.034;15.394;2023-04-24T13:45:56;38.13;;;1.53;;
1747;SDS011;871;47.034;15.394;2023-04-24T13:48:24;38.10;;;1.80;;
1747;SDS011;871;47.034;15.394;2023-04-24T13:50:50;39.17;;;1.90;;
1747;SDS011;871;47.034;15.394;2023-04-24T13:53:17;38.10;;;1.80;;
1747;SDS011;871;47.034;15.394;2023-04-24T13:55:43;37.77;;;1.90;;
1747;SDS011;871;47.034;15.394;2023-04-24T13:58:09;38.37;;;1.97;;
1747;SDS011;871;47.034;15.394;2023-04-24T14:00:35;38.30;;;1.60;;
1747;SDS011;871;47.034;15.394;2023-04-24T14:03:02;38.10;;;1.83;;
1747;SDS011;871;47.034;15.394;2023-04-24T14:05:28;37.53;;;1.50;;
1747;SDS011;871;47.034;15.394;2023-04-24T14:07:54;38.07;;;1.80;;
1747;SDS011;871;47.034;15.394;2023-04-24T14:10:20;37.97;;;1.83;;
1747;SDS011;871;47.034;15.394;2023-04-24T14:12:46;37.80;;;1.80;;
1747;SDS011;871;47.034;15.394;2023-04-24T14:15:13;37.60;;;1.50;;
1747;SDS011;871;47.034;15.394;2023-04-24T14:17:40;39.70;;;1.83;;
1747;SDS011;871;47.034;15.394;2023-04-24T14:20:06;38.53;;;2.03;;
1747;SDS011;871;47.034;15.394;2023-04-24T14:22:33;38.47;;;1.70;;
1747;SDS011;871;47.034;15.394;2023-04-24T14:25:00;39.07;;;1.60;;
1747;SDS011;871;47.034;15.394;2023-04-24T14:27:26;38.63;;;1.73;;
1747;SDS011;871;47.034;15.394;2023-04-24T14:29:52;38.13;;;1.57;;
1747;SDS011;871;47.034;15.394;2023-04-24T14:32:18;39.00;;;2.00;;
1747;SDS011;871;47.034;15.394;2023-04-24T14:34:44;37.93;;;2.00;;
1747;SDS011;871;47.034;15.394;2023-04-24T14:37:10;37.87;;;1.70;;
1747;SDS011;871;47.034;15.394;2023-04-24T14:39:36;39.90;;;2.03;;
1747;SDS011;871;47.034;15.394;2023-04-24T14:42:02;38.10;;;1.87;;
1747;SDS011;871;47.034;15.394;2023-04-24T14:44:28;38.73;;;1.60;;
1747;SDS011;871;47.034;15.394;2023-04-24T14:46:54;37.53;;;1.87;;
1747;SDS011;871;47.034;15.394;2023-04-24T14:49:20;37.63;;;1.93;;
1747;SDS011;871;47.034;15.394;2023-04-24T14:51:46;38.07;;;1.87;;
1747;SDS011;871;47.034;15.394;2023-04-24T14:54:12;37.67;;;1.70;;
1747;SDS011;871;47.034;15.394;2023-04-24T14:56:38;37.50;;;1.50;;
1747;SDS011;871;47.034;15.394;2023-04-24T14:59:05;39.10;;;2.07;;
1747;SDS011;871;47.034;15.394;2023-04-24T15:01:32;38.07;;;1.90;;
1747;SDS011;871;47.034;15.394;2023-04-24T15:03:58;37.77;;;1.83;;
1747;SDS011;871;47.034;15.394;2023-04-24T15:06:24;39.00;;;2.17;;
1747;SDS011;871;47.034;15.394;2023-04-24T15:08:50;39.80;;;2.40;;
1747;SDS011;871;47.034;15.394;2023-04-24T15:11:16;38.57;;;2.13;;
1747;SDS011;871;47.034;15.394;2023-04-24T15:13:42;37.63;;;1.70;;
1747;SDS011;871;47.034;15.394;2023-04-24T15:16:10;38.07;;;1.83;;
1747;SDS011;871;47.034;15.394;2023-04-24T15:18:36;38.40;;;2.17;;
1747;SDS011;871;47.034;15.394;2023-04-24T15:21:02;38.60;;;2.23;;
1747;SDS011;871;47.034;15.394;2023-04-24T15:23:28;38.80;;;2.30;;
1747;SDS011;871;47.034;15.394;2023-04-24T15:25:54;38.47;;;2.43;;
1747;SDS011;871;47.034;15.394;2023-04-24T15:28:21;38.33;;;2.07;;
1747;SDS011;871;47.034;15.394;2023-04-24T15:30:47;38.77;;;2.50;;
1747;SDS011;871;47.034;15.394;2023-04-24T15:33:14;39.10;;;3.37;;
1747;SDS011;871;47.034;15.394;2023-04-24T15:35:40;37.40;;;2.13;;
1747;SDS011;871;47.034;15.394;2023-04-24T15:38:06;38.43;;;3.00;;
1747;SDS011;871;47.034;15.394;2023-04-24T15:40:32;36.70;;;2.07;;
1747;SDS011;871;47.034;15.394;2023-04-24T15:42:58;38.87;;;2.43;;
1747;SDS011;871;47.034;15.394;2023-04-24T15:45:25;37.90;;;2.10;;
1747;SDS011;871;47.034;15.394;2023-04-24T15:47:51;37.47;;;1.90;;
1747;SDS011;871;47.034;15.394;2023-04-24T15:50:17;37.80;;;2.50;;
1747;SDS011;871;47.034;15.394;2023-04-24T15:52:45;37.73;;;2.30;;
1747;SDS011;871;47.034;15.394;2023-04-24T15:55:11;38.43;;;1.87;;
1747;SDS011;871;47.034;15.394;2023-04-24T15:57:41;39.07;;;1.80;;
1747;SDS011;871;47.034;15.394;2023-04-24T16:00:08;38.30;;;1.20;;
1747;SDS011;871;47.034;15.394;2023-04-24T16:02:35;37.40;;;1.23;;
1747;SDS011;871;47.034;15.394;2023-04-24T16:05:01;37.30;;;1.27;;
1747;SDS011;871;47.034;15.394;2023-04-24T16:07:27;38.47;;;2.27;;
1747;SDS011;871;47.034;15.394;2023-04-24T16:09:53;37.30;;;1.57;;
1747;SDS011;871;47.034;15.394;2023-04-24T16:12:19;36.27;;;1.67;;
1747;SDS011;871;47.034;15.394;2023-04-24T16:14:45;36.53;;;1.60;;
1747;SDS011;871;47.034;15.394;2023-04-24T16:17:11;35.80;;;1.83;;
1747;SDS011;871;47.034;15.394;2023-04-24T16:19:38;35.43;;;1.80;;
1747;SDS011;871;47.034;15.394;2023-04-24T16:22:04;36.43;;;1.53;;
1747;SDS011;871;47.034;15.394;2023-04-24T16:24:30;39.80;;;2.40;;
1747;SDS011;871;47.034;15.394;2023-04-24T16:26:56;36.10;;;2.30;;
1747;SDS011;871;47.034;15.394;2023-04-24T16:29:22;35.40;;;2.33;;
1747;SDS011;871;47.034;15.394;2023-04-24T16:31:48;35.13;;;2.60;;
1747;SDS011;871;47.034;15.394;2023-04-24T16:34:14;39.20;;;2.60;;
1747;SDS011;871;47.034;15.394;2023-04-24T16:36:41;36.10;;;2.90;;
1747;SDS011;871;47.034;15.394;2023-04-24T16:39:07;38.03;;;2.70;;
1747;SDS011;871;47.034;15.394;2023-04-24T16:41:33;36.53;;;3.20;;
1747;SDS011;871;47.034;15.394;2023-04-24T16:43:59;36.80;;;4.30;;
1747;SDS011;871;47.034;15.394;2023-04-24T16:46:25;35.90;;;3.40;;
1747;SDS011;871;47.034;15.394;2023-04-24T16:48:52;40.93;;;2.47;;
1747;SDS011;871;47.034;15.394;2023-04-24T16:51:18;35.53;;;3.27;;
1747;SDS011;871;47.034;15.394;2023-04-24T16:53:44;40.70;;;4.37;;
1747;SDS011;871;47.034;15.394;2023-04-24T16:56:10;35.70;;;3.93;;
1747;SDS011;871;47.034;15.394;2023-04-24T16:58:36;34.13;;;2.80;;
1747;SDS011;871;47.034;15.394;2023-04-24T17:01:02;33.90;;;2.67;;
1747;SDS011;871;47.034;15.394;2023-04-24T17:03:28;36.70;;;2.67;;
1747;SDS011;871;47.034;15.394;2023-04-24T17:05:54;34.50;;;2.70;;
1747;SDS011;871;47.034;15.394;2023-04-24T17:08:20;33.60;;;2.53;;
1747;SDS011;871;47.034;15.394;2023-04-24T17:10:47;32.97;;;2.33;;
1747;SDS011;871;47.034;15.394;2023-04-24T17:13:13;34.93;;;2.83;;
1747;SDS011;871;47.034;15.394;2023-04-24T17:15:42;35.40;;;2.93;;
1747;SDS011;871;47.034;15.394;2023-04-24T17:18:08;33.70;;;2.73;;
1747;SDS011;871;47.034;15.394;2023-04-24T17:20:34;34.03;;;3.10;;
1747;SDS011;871;47.034;15.394;2023-04-24T17:23:00;35.53;;;3.40;;
1747;SDS011;871;47.034;15.394;2023-04-24T17:25:26;33.93;;;2.90;;
1747;SDS011;871;47.034;15.394;2023-04-24T17:27:53;33.37;;;3.30;;
1747;SDS011;871;47.034;15.394;2023-04-24T17:30:19;34.10;;;3.50;;
1747;SDS011;871;47.034;15.394;2023-04-24T17:32:46;35.00;;;4.37;;
1747;SDS011;871;47.034;15.394;2023-04-24T17:35:12;32.70;;;2.73;;
1747;SDS011;871;47.034;15.394;2023-04-24T17:37:38;32.70;;;2.87;;
1747;SDS011;871;47.034;15.394;2023-04-24T17:40:05;32.60;;;2.83;;
1747;SDS011;871;47.034;15.394;2023-04-24T17:42:32;37.27;;;5.97;;
1747;SDS011;871;47.034;15.394;2023-04-24T17:45:00;33.60;;;4.10;;
1747;SDS011;871;47.034;15.394;2023-04-24T17:47:26;33.13;;;3.63;;
1747;SDS011;871;47.034;15.394;2023-04-24T17:49:55;33.27;;;3.87;;
1747;SDS011;871;47.034;15.394;2023-04-24T17:52:21;35.00;;;3.43;;
1747;SDS011;871;47.034;15.394;2023-04-24T17:54:47;36.97;;;4.47;;
1747;SDS011;871;47.034;15.394;2023-04-24T17:57:13;35.43;;;3.60;;
1747;SDS011;871;47.034;15.394;2023-04-24T17:59:39;33.33;;;3.37;;
1747;SDS011;871;47.034;15.394;2023-04-24T18:02:05;33.93;;;3.77;;
1747;SDS011;871;47.034;15.394;2023-04-24T18:04:31;38.80;;;3.80;;
1747;SDS011;871;47.034;15.394;2023-04-24T18:06:58;36.70;;;4.00;;
1747;SDS011;871;47.034;15.394;2023-04-24T18:09:24;37.03;;;4.07;;
1747;SDS011;871;47.034;15.394;2023-04-24T18:11:50;37.20;;;4.53;;
1747;SDS011;871;47.034;15.394;2023-04-24T18:14:16;36.40;;;4.73;;
1747;SDS011;871;47.034;15.394;2023-04-24T18:16:42;37.47;;;4.47;;
1747;SDS011;871;47.034;15.394;2023-04-24T18:19:08;36.80;;;4.60;;
1747;SDS011;871;47.034;15.394;2023-04-24T18:21:34;38.13;;;4.67;;
1747;SDS011;871;47.034;15.394;2023-04-24T18:24:01;36.67;;;4.30;;
1747;SDS011;871;47.034;15.394;2023-04-24T18:26:27;37.30;;;5.00;;
1747;SDS011;871;47.034;15.394;2023-04-24T18:28:53;37.10;;;4.80;;
1747;SDS011;871;47.034;15.394;2023-04-24T18:31:19;37.97;;;4.00;;
1747;SDS011;871;47.034;15.394;2023-04-24T18:33:45;37.17;;;4.70;;
1747;SDS011;871;47.034;15.394;2023-04-24T18:36:12;36.77;;;4.77;;
1747;SDS011;871;47.034;15.394;2023-04-24T18:38:39;36.83;;;4.60;;
1747;SDS011;871;47.034;15.394;2023-04-24T18:41:06;39.77;;;6.83;;
1747;SDS011;871;47.034;15.394;2023-04-24T18:43:32;39.07;;;5.70;;
1747;SDS011;871;47.034;15.394;2023-04-24T18:45:58;37.47;;;5.47;;
1747;SDS011;871;47.034;15.394;2023-04-24T18:48:25;36.77;;;5.50;;
1747;SDS011;871;47.034;15.394;2023-04-24T18:50:53;39.70;;;6.00;;
1747;SDS011;871;47.034;15.394;2023-04-24T18:53:19;37.50;;;5.93;;
1747;SDS011;871;47.034;15.394;2023-04-24T18:55:45;35.70;;;5.07;;
1747;SDS011;871;47.034;15.394;2023-04-24T18:58:11;36.17;;;5.80;;
1747;SDS011;871;47.034;15.394;2023-04-24T19:00:38;38.20;;;7.30;;
1747;SDS011;871;47.034;15.394;2023-04-24T19:03:04;39.10;;;6.27;;
1747;SDS011;871;47.034;15.394;2023-04-24T19:05:32;38.70;;;6.77;;